createdAt,value
2018-10-06T00:01:00.225Z,100.00
2018-10-06T00:04:04.591Z,100.00
2018-10-06T00:07:07.517Z,100.00
2018-10-06T00:10:10.484Z,100.00
2018-10-06T00:13:13.409Z,100.00
2018-10-06T00:16:16.342Z,100.00
2018-10-06T00:19:19.242Z,100.00
2018-10-06T00:22:29.064Z,100.00
2018-10-06T00:25:32.010Z,100.00
2018-10-06T00:28:34.974Z,100.00
2018-10-06T00:31:37.913Z,100.00
2018-10-06T00:34:40.818Z,100.00
2018-10-06T00:37:43.753Z,100.00
2018-10-06T00:40:46.641Z,100.00
2018-10-06T00:43:49.907Z,100.00
2018-10-06T00:46:52.857Z,100.00
2018-10-06T00:49:55.804Z,100.00
2018-10-06T00:52:58.756Z,100.00
2018-10-06T00:56:01.688Z,100.00
2018-10-06T00:59:04.807Z,100.00
2018-10-06T01:02:07.734Z,100.00
2018-10-06T01:05:10.634Z,100.00
2018-10-06T01:08:13.581Z,100.00
2018-10-06T01:11:16.510Z,100.00
2018-10-06T01:14:19.463Z,100.00
2018-10-06T01:17:22.430Z,100.00
2018-10-06T01:20:25.392Z,100.00
2018-10-06T01:23:28.415Z,100.00
2018-10-06T01:26:31.398Z,100.00
2018-10-06T01:29:34.329Z,100.00
2018-10-06T01:32:37.263Z,100.00
2018-10-06T01:35:40.182Z,100.00
2018-10-06T01:38:43.761Z,100.00
2018-10-06T01:41:46.690Z,100.00
2018-10-06T01:44:49.616Z,100.00
2018-10-06T01:47:52.568Z,100.00
2018-10-06T01:50:55.543Z,100.00
2018-10-06T01:53:58.425Z,100.00
2018-10-06T01:57:01.474Z,100.00
2018-10-06T02:00:04.529Z,100.00
2018-10-06T02:03:07.414Z,100.00
2018-10-06T02:06:10.402Z,100.00
2018-10-06T02:09:13.319Z,100.00
2018-10-06T02:12:16.250Z,100.00
2018-10-06T02:15:19.094Z,100.00
2018-10-06T02:18:22.049Z,100.00
2018-10-06T02:21:25.048Z,100.00
2018-10-06T02:24:27.985Z,100.00
2018-10-06T02:27:30.933Z,100.00
2018-10-06T02:30:33.894Z,100.00
2018-10-06T02:33:36.810Z,100.00
2018-10-06T02:36:39.760Z,100.00
2018-10-06T02:39:42.666Z,100.00
2018-10-06T02:42:45.620Z,100.00
2018-10-06T02:45:48.626Z,100.00
2018-10-06T02:48:51.524Z,100.00
2018-10-06T02:51:54.437Z,100.00
2018-10-06T02:54:57.332Z,100.00
2018-10-06T02:58:00.304Z,100.00
2018-10-06T03:01:03.265Z,100.00
2018-10-06T03:04:06.239Z,100.00
2018-10-06T03:07:09.268Z,100.00
2018-10-06T03:10:12.154Z,100.00
2018-10-06T03:13:15.061Z,100.00
2018-10-06T03:16:17.988Z,100.00
2018-10-06T03:19:20.850Z,100.00
2018-10-06T03:22:23.773Z,100.00
2018-10-06T03:25:26.688Z,100.00
2018-10-06T03:28:29.669Z,100.00
2018-10-06T03:31:32.578Z,100.00
2018-10-06T03:34:35.553Z,100.00
2018-10-06T03:37:38.514Z,100.00
2018-10-06T03:40:41.550Z,100.00
2018-10-06T03:43:44.481Z,100.00
2018-10-06T03:46:47.453Z,100.00
2018-10-06T03:49:50.428Z,100.00
2018-10-06T03:52:53.422Z,100.00
2018-10-06T03:55:56.367Z,100.00
2018-10-06T03:58:59.314Z,100.00
2018-10-06T04:02:02.217Z,100.00
2018-10-06T04:05:05.249Z,100.00
2018-10-06T04:08:08.232Z,100.00
2018-10-06T04:11:11.165Z,100.00
2018-10-06T04:14:14.074Z,100.00
2018-10-06T04:17:17.009Z,100.00
2018-10-06T04:20:19.895Z,100.00
2018-10-06T04:23:22.841Z,100.00
2018-10-06T04:26:25.853Z,100.00
2018-10-06T04:29:28.765Z,100.00
2018-10-06T04:32:31.665Z,100.00
2018-10-06T04:35:34.623Z,100.00
2018-10-06T04:38:37.537Z,100.00
2018-10-06T04:41:40.482Z,100.00
2018-10-06T04:44:43.512Z,100.00
2018-10-06T04:47:46.437Z,100.00
2018-10-06T04:50:49.302Z,100.00
2018-10-06T04:53:52.220Z,100.00
2018-10-06T04:56:55.169Z,100.00
2018-10-06T04:59:58.089Z,100.00
2018-10-06T05:03:00.965Z,100.00
2018-10-06T05:06:03.918Z,100.00
2018-10-06T05:09:07.909Z,100.00
2018-10-06T05:12:10.831Z,100.00
2018-10-06T05:15:13.790Z,100.00
2018-10-06T05:18:16.722Z,100.00
2018-10-06T05:21:19.613Z,100.00
2018-10-06T05:24:22.521Z,100.00
2018-10-06T05:27:25.491Z,100.00
2018-10-06T05:30:28.480Z,100.00
2018-10-06T05:33:31.482Z,100.00
2018-10-06T05:36:34.425Z,100.00
2018-10-06T05:39:37.358Z,100.00
2018-10-06T05:42:40.433Z,100.00
2018-10-06T05:45:43.361Z,100.00
2018-10-06T05:48:46.273Z,100.00
2018-10-06T05:51:49.218Z,100.00
2018-10-06T05:54:52.282Z,100.00
2018-10-06T05:57:55.610Z,100.00
2018-10-06T06:00:58.593Z,100.00
2018-10-06T06:04:01.598Z,100.00
2018-10-06T06:07:04.597Z,100.00
2018-10-06T06:10:07.818Z,100.00
2018-10-06T06:13:10.737Z,100.00
2018-10-06T06:16:13.673Z,100.00
2018-10-06T06:19:16.673Z,100.00
2018-10-06T06:22:19.659Z,100.00
2018-10-06T06:25:22.625Z,100.00
2018-10-06T06:28:25.547Z,100.00
2018-10-06T06:31:28.549Z,100.00
2018-10-06T06:34:31.577Z,100.00
2018-10-06T06:37:34.522Z,100.00
2018-10-06T06:40:37.440Z,100.00
2018-10-06T06:43:40.414Z,100.00
2018-10-06T06:46:43.380Z,100.00
2018-10-06T06:49:46.325Z,100.00
2018-10-06T06:52:49.265Z,100.00
2018-10-06T06:55:52.205Z,100.00
2018-10-06T06:58:55.855Z,100.00
2018-10-06T07:01:58.819Z,100.00
2018-10-06T07:05:01.746Z,100.00
2018-10-06T07:08:04.796Z,100.00
2018-10-06T07:11:07.755Z,100.00
2018-10-06T07:14:10.737Z,100.00
2018-10-06T07:17:13.680Z,100.00
2018-10-06T07:20:16.622Z,100.00
2018-10-06T07:23:19.561Z,100.00
2018-10-06T07:26:22.532Z,100.00
2018-10-06T07:29:25.534Z,100.00
2018-10-06T07:32:35.048Z,100.00
2018-10-06T07:35:37.998Z,100.00
2018-10-06T07:38:40.897Z,100.00
2018-10-06T07:41:43.783Z,100.00
2018-10-06T07:44:48.541Z,100.00
2018-10-06T07:47:51.429Z,100.00
2018-10-06T07:50:54.372Z,100.00
2018-10-06T07:53:57.245Z,100.00
2018-10-06T07:57:00.211Z,100.00
2018-10-06T08:00:03.185Z,100.00
2018-10-06T08:03:06.293Z,100.00
2018-10-06T08:06:09.269Z,100.00
2018-10-06T08:09:12.180Z,100.00
2018-10-06T08:12:15.134Z,100.00
2018-10-06T08:15:18.122Z,100.00
2018-10-06T08:18:21.110Z,100.00
2018-10-06T08:21:24.057Z,100.00
2018-10-06T08:24:26.982Z,100.00
2018-10-06T08:27:29.862Z,100.00
2018-10-06T08:30:32.928Z,100.00
2018-10-06T08:33:35.956Z,100.00
2018-10-06T08:36:38.921Z,100.00
2018-10-06T08:39:41.825Z,100.00
2018-10-06T08:42:44.879Z,100.00
2018-10-06T08:45:47.743Z,100.00
2018-10-06T08:48:50.679Z,100.00
2018-10-06T08:51:53.587Z,100.00
2018-10-06T08:54:56.513Z,100.00
2018-10-06T08:57:59.480Z,100.00
2018-10-06T09:01:02.397Z,100.00
2018-10-06T09:04:05.748Z,100.00
2018-10-06T09:07:08.701Z,100.00
2018-10-06T09:10:12.169Z,100.00
2018-10-06T09:13:15.074Z,100.00
2018-10-06T09:16:18.027Z,100.00
2018-10-06T09:19:20.975Z,100.00
2018-10-06T09:22:23.892Z,100.00
2018-10-06T09:25:26.836Z,100.00
2018-10-06T09:28:29.749Z,100.00
2018-10-06T09:31:32.750Z,100.00
2018-10-06T09:34:35.726Z,100.00
2018-10-06T09:37:38.684Z,100.00
2018-10-06T09:40:41.592Z,100.00
2018-10-06T09:43:44.697Z,100.00
2018-10-06T09:46:47.592Z,100.00
2018-10-06T09:49:50.503Z,100.00
2018-10-06T09:52:53.457Z,100.00
2018-10-06T09:55:56.374Z,100.00
2018-10-06T09:58:59.284Z,100.00
2018-10-06T10:02:08.034Z,100.00
2018-10-06T10:05:16.503Z,100.00
2018-10-06T10:08:19.396Z,100.00
2018-10-06T10:11:22.363Z,100.00
2018-10-06T10:14:25.318Z,100.00
2018-10-06T10:17:28.247Z,100.00
2018-10-06T10:20:31.127Z,100.00
2018-10-06T10:23:34.113Z,100.00
2018-10-06T10:26:37.070Z,100.00
2018-10-06T10:29:40.061Z,100.00
2018-10-06T10:32:42.978Z,100.00
2018-10-06T10:35:45.913Z,100.00
2018-10-06T10:38:48.991Z,100.00
2018-10-06T10:41:51.886Z,100.00
2018-10-06T10:44:54.820Z,100.00
2018-10-06T10:47:57.749Z,100.00
2018-10-06T10:51:00.678Z,100.00
2018-10-06T10:54:03.572Z,100.00
2018-10-06T10:57:06.598Z,100.00
2018-10-06T11:00:09.712Z,100.00
2018-10-06T11:03:12.592Z,100.00
2018-10-06T11:06:15.540Z,100.00
2018-10-06T11:09:18.445Z,100.00
2018-10-06T11:12:21.424Z,100.00
2018-10-06T11:15:24.398Z,100.00
2018-10-06T11:18:27.386Z,100.00
2018-10-06T11:21:30.346Z,100.00
2018-10-06T11:24:33.301Z,100.00
2018-10-06T11:27:36.237Z,100.00
2018-10-06T11:30:39.194Z,100.00
2018-10-06T11:33:42.126Z,99.44
2018-10-06T11:36:45.021Z,100.00
2018-10-06T11:39:47.953Z,100.00
2018-10-06T11:42:50.844Z,100.00
2018-10-06T11:45:53.762Z,100.00
2018-10-06T11:48:56.694Z,100.00
2018-10-06T11:51:59.606Z,97.88
2018-10-06T11:55:02.509Z,89.95
2018-10-06T11:58:05.443Z,89.38
2018-10-06T12:01:09.758Z,91.21
2018-10-06T12:04:12.756Z,88.11
2018-10-06T12:07:15.671Z,90.89
2018-10-06T12:10:18.604Z,83.03
2018-10-06T12:13:21.584Z,85.17
2018-10-06T12:16:24.529Z,86.02
2018-10-06T12:19:27.405Z,87.11
2018-10-06T12:22:30.349Z,90.54
2018-10-06T12:25:33.293Z,93.35
2018-10-06T12:28:36.241Z,87.86
2018-10-06T12:31:39.192Z,85.25
2018-10-06T12:34:42.174Z,85.56
2018-10-06T12:37:45.157Z,85.04
2018-10-06T12:40:48.070Z,90.34
2018-10-06T12:43:51.047Z,82.23
2018-10-06T12:46:54.154Z,84.83
2018-10-06T12:49:57.082Z,79.64
2018-10-06T12:53:00.033Z,91.04
2018-10-06T12:56:02.951Z,98.72
2018-10-06T12:59:06.105Z,82.33
2018-10-06T13:02:09.039Z,87.87
2018-10-06T13:05:11.955Z,76.93
2018-10-06T13:08:14.908Z,79.04
2018-10-06T13:11:17.842Z,85.90
2018-10-06T13:14:20.758Z,75.89
2018-10-06T13:17:23.673Z,74.18
2018-10-06T13:20:26.600Z,70.83
2018-10-06T13:23:29.525Z,76.21
2018-10-06T13:26:32.492Z,72.70
2018-10-06T13:29:35.497Z,76.43
2018-10-06T13:32:38.465Z,77.24
2018-10-06T13:35:41.405Z,77.17
2018-10-06T13:38:44.374Z,77.16
2018-10-06T13:41:47.365Z,76.29
2018-10-06T13:44:50.301Z,78.05
2018-10-06T13:47:53.549Z,82.26
2018-10-06T13:50:56.570Z,82.24
2018-10-06T13:53:59.829Z,85.36
2018-10-06T13:57:02.902Z,80.86
2018-10-06T14:00:05.945Z,79.69
2018-10-06T14:03:08.901Z,84.03
2018-10-06T14:06:11.849Z,100.00
2018-10-06T14:09:14.789Z,82.09
2018-10-06T14:12:17.717Z,83.90
2018-10-06T14:15:20.633Z,81.76
2018-10-06T14:18:23.596Z,84.08
2018-10-06T14:21:26.529Z,81.06
2018-10-06T14:24:29.423Z,89.72
2018-10-06T14:27:32.372Z,86.68
2018-10-06T14:30:35.329Z,81.28
2018-10-06T14:33:38.260Z,92.09
2018-10-06T14:36:41.267Z,82.54
2018-10-06T14:39:44.221Z,83.16
2018-10-06T14:42:47.226Z,81.48
2018-10-06T14:45:50.119Z,79.75
2018-10-06T14:48:53.045Z,82.08
2018-10-06T14:51:55.985Z,90.04
2018-10-06T14:54:58.927Z,85.15
2018-10-06T14:58:01.892Z,95.77
2018-10-06T15:01:04.989Z,95.79
2018-10-06T15:04:07.878Z,99.34
2018-10-06T15:07:10.828Z,100.00
2018-10-06T15:10:13.825Z,100.00
2018-10-06T15:13:16.708Z,100.00
2018-10-06T15:16:19.776Z,100.00
2018-10-06T15:19:22.780Z,100.00
2018-10-06T15:22:25.840Z,100.00
2018-10-06T15:25:28.780Z,100.00
2018-10-06T15:28:31.728Z,100.00
2018-10-06T15:31:34.699Z,100.00
2018-10-06T15:34:37.692Z,100.00
2018-10-06T15:37:40.727Z,100.00
2018-10-06T15:40:43.717Z,100.00
2018-10-06T15:43:46.720Z,100.00
2018-10-06T15:46:49.704Z,100.00
2018-10-06T15:49:52.632Z,100.00
2018-10-06T15:52:55.518Z,100.00
2018-10-06T15:55:58.808Z,100.00
2018-10-06T15:59:01.813Z,100.00
2018-10-06T16:02:04.844Z,100.00
2018-10-06T16:05:07.714Z,100.00
2018-10-06T16:08:10.613Z,100.00
2018-10-06T16:11:13.508Z,100.00
2018-10-06T16:14:16.458Z,100.00
2018-10-06T16:17:19.424Z,100.00
2018-10-06T16:20:25.443Z,100.00
2018-10-06T16:23:29.078Z,100.00
2018-10-06T16:26:32.591Z,100.00
2018-10-06T16:29:35.942Z,100.00
2018-10-06T16:32:38.924Z,100.00
2018-10-06T16:35:42.441Z,100.00
2018-10-06T16:38:45.344Z,100.00
2018-10-06T16:41:48.300Z,100.00
2018-10-06T16:44:51.310Z,100.00
2018-10-06T16:47:54.729Z,100.00
2018-10-06T16:50:58.198Z,100.00
2018-10-06T16:54:01.501Z,100.00
2018-10-06T16:57:04.521Z,100.00
2018-10-06T17:00:08.637Z,100.00
2018-10-06T17:03:12.038Z,100.00
2018-10-06T17:06:15.309Z,100.00
2018-10-06T17:09:18.780Z,100.00
2018-10-06T17:12:22.839Z,100.00
2018-10-06T17:15:25.736Z,100.00
2018-10-06T17:18:28.907Z,100.00
2018-10-06T17:21:32.022Z,100.00
2018-10-06T17:24:35.583Z,100.00
2018-10-06T17:27:39.092Z,100.00
2018-10-06T17:30:42.518Z,100.00
2018-10-06T17:33:45.649Z,100.00
2018-10-06T17:36:48.617Z,100.00
2018-10-06T17:39:51.983Z,100.00
2018-10-06T17:42:55.250Z,100.00
2018-10-06T17:45:58.801Z,100.00
2018-10-06T17:49:02.019Z,100.00
2018-10-06T17:52:04.963Z,100.00
2018-10-06T17:55:08.066Z,100.00
2018-10-06T17:58:11.381Z,100.00
2018-10-06T18:01:14.770Z,100.00
2018-10-06T18:04:17.960Z,100.00
2018-10-06T18:07:21.216Z,100.00
2018-10-06T18:10:24.206Z,100.00
2018-10-06T18:13:27.469Z,100.00
2018-10-06T18:16:30.802Z,100.00
2018-10-06T18:19:34.656Z,100.00
2018-10-06T18:22:38.245Z,100.00
2018-10-06T18:25:41.679Z,100.00
2018-10-06T18:28:44.881Z,100.00
2018-10-06T18:31:49.004Z,100.00
2018-10-06T18:34:52.277Z,100.00
2018-10-06T18:37:55.247Z,100.00
2018-10-06T18:40:59.036Z,100.00
2018-10-06T18:44:02.133Z,100.00
2018-10-06T18:47:05.562Z,100.00
2018-10-06T18:50:08.530Z,100.00
2018-10-06T18:53:11.894Z,100.00
2018-10-06T18:56:15.749Z,100.00
2018-10-06T18:59:19.395Z,100.00
2018-10-06T19:02:23.319Z,100.00
2018-10-06T19:05:26.378Z,100.00
2018-10-06T19:08:29.569Z,100.00
2018-10-06T19:11:32.609Z,100.00
2018-10-06T19:14:35.959Z,100.00
2018-10-06T19:17:39.064Z,100.00
2018-10-06T19:20:43.814Z,100.00
2018-10-06T19:23:47.740Z,100.00
2018-10-06T19:26:51.202Z,100.00
2018-10-06T19:29:54.549Z,100.00
2018-10-06T19:32:57.505Z,100.00
2018-10-06T19:36:00.927Z,100.00
2018-10-06T19:39:06.137Z,100.00
2018-10-06T19:42:09.368Z,100.00
2018-10-06T19:45:12.532Z,100.00
2018-10-06T19:48:15.950Z,100.00
2018-10-06T19:51:19.225Z,100.00
2018-10-06T19:54:22.797Z,100.00
2018-10-06T19:57:26.197Z,100.00
2018-10-06T20:00:29.450Z,100.00
2018-10-06T20:03:32.738Z,100.00
2018-10-06T20:06:36.313Z,100.00
2018-10-06T20:09:39.222Z,100.00
2018-10-06T20:12:42.516Z,100.00
2018-10-06T20:15:45.921Z,100.00
2018-10-06T20:18:49.724Z,100.00
2018-10-06T20:21:52.756Z,100.00
2018-10-06T20:24:56.313Z,100.00
2018-10-06T20:28:00.892Z,100.00
2018-10-06T20:31:04.704Z,100.00
2018-10-06T20:34:08.698Z,100.00
2018-10-06T20:37:11.773Z,100.00
2018-10-06T20:40:15.579Z,100.00
2018-10-06T20:43:19.795Z,100.00
2018-10-06T20:46:23.643Z,100.00
2018-10-06T20:49:26.926Z,100.00
2018-10-06T20:52:30.344Z,100.00
2018-10-06T20:55:33.561Z,100.00
2018-10-06T20:58:36.540Z,100.00
2018-10-06T21:01:39.864Z,100.00
2018-10-06T21:04:42.959Z,100.00
2018-10-06T21:07:45.958Z,100.00
2018-10-06T21:10:49.072Z,100.00
2018-10-06T21:13:52.020Z,100.00
2018-10-06T21:16:54.978Z,100.00
2018-10-06T21:19:57.985Z,100.00
2018-10-06T21:23:00.890Z,100.00
2018-10-06T21:26:04.119Z,100.00
2018-10-06T21:29:07.169Z,100.00
2018-10-06T21:32:10.218Z,100.00
2018-10-06T21:35:13.117Z,100.00
2018-10-06T21:38:16.039Z,100.00
2018-10-06T21:41:18.978Z,100.00
2018-10-06T21:44:21.889Z,100.00
2018-10-06T21:47:24.824Z,100.00
2018-10-06T21:50:27.764Z,100.00
2018-10-06T21:53:30.701Z,100.00
2018-10-06T21:56:33.665Z,100.00
2018-10-06T21:59:36.596Z,100.00
2018-10-06T22:02:39.839Z,100.00
2018-10-06T22:05:42.786Z,100.00
2018-10-06T22:08:50.258Z,100.00
2018-10-06T22:11:53.474Z,100.00
2018-10-06T22:14:56.488Z,100.00
2018-10-06T22:17:59.395Z,100.00
2018-10-06T22:21:02.269Z,100.00
2018-10-06T22:24:05.195Z,100.00
2018-10-06T22:27:08.149Z,100.00
2018-10-06T22:30:11.128Z,100.00
2018-10-06T22:33:14.120Z,100.00
2018-10-06T22:36:17.041Z,100.00
2018-10-06T22:39:20.012Z,100.00
2018-10-06T22:42:22.925Z,100.00
2018-10-06T22:45:25.864Z,100.00
2018-10-06T22:48:28.766Z,100.00
2018-10-06T22:51:31.689Z,100.00
2018-10-06T22:54:34.665Z,100.00
2018-10-06T22:57:37.565Z,100.00
2018-10-06T23:00:40.498Z,100.00
2018-10-06T23:03:43.417Z,100.00
2018-10-06T23:06:46.481Z,100.00
2018-10-06T23:09:49.437Z,100.00
2018-10-06T23:12:52.354Z,100.00
2018-10-06T23:15:55.285Z,100.00
2018-10-06T23:18:58.213Z,100.00
2018-10-06T23:22:01.212Z,100.00
2018-10-06T23:25:04.150Z,100.00
2018-10-06T23:28:07.069Z,100.00
2018-10-06T23:31:10.006Z,100.00
2018-10-06T23:34:12.930Z,100.00
2018-10-06T23:37:15.889Z,100.00
2018-10-06T23:40:18.842Z,100.00
2018-10-06T23:43:21.766Z,100.00
2018-10-06T23:46:24.745Z,100.00
2018-10-06T23:49:27.669Z,100.00
2018-10-06T23:52:30.604Z,100.00
2018-10-06T23:55:33.473Z,100.00
2018-10-06T23:58:36.435Z,100.00
